sensor_id;sensor_type;location;lat;lon;timestamp;temperature;humidity
67942;SHT31;54731;42.600;23.476;2022-12-20T00:00:25;-0.74;73.10
67942;SHT31;54731;42.600;23.476;2022-12-20T00:02:50;-0.78;73.47
67942;SHT31;54731;42.600;23.476;2022-12-20T00:05:15;-0.78;73.27
67942;SHT31;54731;42.600;23.476;2022-12-20T00:07:41;-0.88;73.46
67942;SHT31;54731;42.600;23.476;2022-12-20T00:10:06;-0.88;73.63
67942;SHT31;54731;42.600;23.476;2022-12-20T00:12:32;-0.89;73.80
67942;SHT31;54731;42.600;23.476;2022-12-20T00:14:57;-0.87;73.26
67942;SHT31;54731;42.600;23.476;2022-12-20T00:17:22;-0.91;73.14
67942;SHT31;54731;42.600;23.476;2022-12-20T00:19:48;-0.99;73.30
67942;SHT31;54731;42.600;23.476;2022-12-20T00:22:13;-1.01;73.58
67942;SHT31;54731;42.600;23.476;2022-12-20T00:24:38;-1.08;73.62
67942;SHT31;54731;42.600;23.476;2022-12-20T00:27:04;-1.19;74.07
67942;SHT31;54731;42.600;23.476;2022-12-20T00:29:29;-1.20;74.00
67942;SHT31;54731;42.600;23.476;2022-12-20T00:31:54;-1.20;73.89
67942;SHT31;54731;42.600;23.476;2022-12-20T00:34:19;-1.31;73.97
67942;SHT31;54731;42.600;23.476;2022-12-20T00:36:45;-1.32;74.20
67942;SHT31;54731;42.600;23.476;2022-12-20T00:39:10;-1.28;74.21
67942;SHT31;54731;42.600;23.476;2022-12-20T00:41:36;-1.28;74.03
67942;SHT31;54731;42.600;23.476;2022-12-20T00:44:02;-1.32;74.04
67942;SHT31;54731;42.600;23.476;2022-12-20T00:46:28;-1.43;74.18
67942;SHT31;54731;42.600;23.476;2022-12-20T00:48:54;-1.38;74.02
67942;SHT31;54731;42.600;23.476;2022-12-20T00:51:23;-1.35;73.73
67942;SHT31;54731;42.600;23.476;2022-12-20T00:53:49;-1.39;74.00
67942;SHT31;54731;42.600;23.476;2022-12-20T00:56:14;-1.43;74.03
67942;SHT31;54731;42.600;23.476;2022-12-20T00:58:41;-1.47;74.25
67942;SHT31;54731;42.600;23.476;2022-12-20T01:01:23;-1.47;74.00
67942;SHT31;54731;42.600;23.476;2022-12-20T01:03:50;-1.46;73.88
67942;SHT31;54731;42.600;23.476;2022-12-20T01:06:17;-1.54;73.85
67942;SHT31;54731;42.600;23.476;2022-12-20T01:08:42;-1.63;73.95
67942;SHT31;54731;42.600;23.476;2022-12-20T01:13:39;-1.59;74.15
67942;SHT31;54731;42.600;23.476;2022-12-20T01:16:10;-1.62;74.27
67942;SHT31;54731;42.600;23.476;2022-12-20T01:18:36;-1.67;74.46
67942;SHT31;54731;42.600;23.476;2022-12-20T01:21:09;-1.59;74.15
67942;SHT31;54731;42.600;23.476;2022-12-20T01:23:35;-1.66;73.93
67942;SHT31;54731;42.600;23.476;2022-12-20T01:26:02;-1.76;74.61
67942;SHT31;54731;42.600;23.476;2022-12-20T01:28:28;-1.76;74.73
67942;SHT31;54731;42.600;23.476;2022-12-20T01:30:53;-1.77;74.68
67942;SHT31;54731;42.600;23.476;2022-12-20T01:33:19;-1.74;74.67
67942;SHT31;54731;42.600;23.476;2022-12-20T01:35:55;-1.71;73.98
67942;SHT31;54731;42.600;23.476;2022-12-20T01:38:21;-1.76;73.98
67942;SHT31;54731;42.600;23.476;2022-12-20T01:40:46;-1.78;74.36
67942;SHT31;54731;42.600;23.476;2022-12-20T01:43:13;-1.81;74.68
67942;SHT31;54731;42.600;23.476;2022-12-20T01:45:39;-1.80;74.53
67942;SHT31;54731;42.600;23.476;2022-12-20T01:48:05;-1.91;74.92
67942;SHT31;54731;42.600;23.476;2022-12-20T01:50:32;-1.81;74.78
67942;SHT31;54731;42.600;23.476;2022-12-20T01:52:58;-1.86;75.01
67942;SHT31;54731;42.600;23.476;2022-12-20T01:55:25;-1.87;74.94
67942;SHT31;54731;42.600;23.476;2022-12-20T02:00:19;-1.86;75.06
67942;SHT31;54731;42.600;23.476;2022-12-20T02:02:48;-1.88;74.96
67942;SHT31;54731;42.600;23.476;2022-12-20T02:05:14;-1.95;75.17
67942;SHT31;54731;42.600;23.476;2022-12-20T02:07:40;-2.04;75.28
67942;SHT31;54731;42.600;23.476;2022-12-20T02:10:07;-2.01;75.21
67942;SHT31;54731;42.600;23.476;2022-12-20T02:12:39;-2.02;75.32
67942;SHT31;54731;42.600;23.476;2022-12-20T02:29:09;-2.14;75.04
67942;SHT31;54731;42.600;23.476;2022-12-20T02:31:39;-2.14;74.87
67942;SHT31;54731;42.600;23.476;2022-12-20T02:34:08;-2.17;74.92
67942;SHT31;54731;42.600;23.476;2022-12-20T02:36:34;-2.15;75.20
67942;SHT31;54731;42.600;23.476;2022-12-20T02:38:59;-2.21;75.50
67942;SHT31;54731;42.600;23.476;2022-12-20T02:41:40;-2.15;75.27
67942;SHT31;54731;42.600;23.476;2022-12-20T02:44:12;-2.22;75.09
67942;SHT31;54731;42.600;23.476;2022-12-20T02:46:38;-2.21;75.25
67942;SHT31;54731;42.600;23.476;2022-12-20T02:49:11;-2.21;75.14
67942;SHT31;54731;42.600;23.476;2022-12-20T02:51:38;-2.28;75.39
67942;SHT31;54731;42.600;23.476;2022-12-20T02:54:05;-2.24;75.63
67942;SHT31;54731;42.600;23.476;2022-12-20T02:56:35;-2.28;75.56
67942;SHT31;54731;42.600;23.476;2022-12-20T02:59:17;-2.29;75.79
67942;SHT31;54731;42.600;23.476;2022-12-20T03:01:50;-2.32;75.59
67942;SHT31;54731;42.600;23.476;2022-12-20T03:04:18;-2.34;75.92
67942;SHT31;54731;42.600;23.476;2022-12-20T03:07:05;-2.32;75.80
67942;SHT31;54731;42.600;23.476;2022-12-20T03:09:32;-2.31;75.72
67942;SHT31;54731;42.600;23.476;2022-12-20T03:11:58;-2.28;75.56
67942;SHT31;54731;42.600;23.476;2022-12-20T03:14:23;-2.34;75.86
67942;SHT31;54731;42.600;23.476;2022-12-20T03:16:48;-2.38;75.81
67942;SHT31;54731;42.600;23.476;2022-12-20T03:19:14;-2.39;75.63
67942;SHT31;54731;42.600;23.476;2022-12-20T03:21:39;-2.44;75.99
67942;SHT31;54731;42.600;23.476;2022-12-20T03:24:05;-2.44;75.92
67942;SHT31;54731;42.600;23.476;2022-12-20T03:26:30;-2.46;75.67
67942;SHT31;54731;42.600;23.476;2022-12-20T03:28:56;-2.55;75.95
67942;SHT31;54731;42.600;23.476;2022-12-20T03:31:21;-2.58;76.06
67942;SHT31;54731;42.600;23.476;2022-12-20T03:33:46;-2.59;76.04
67942;SHT31;54731;42.600;23.476;2022-12-20T03:36:12;-2.66;76.44
67942;SHT31;54731;42.600;23.476;2022-12-20T03:38:37;-2.76;76.83
67942;SHT31;54731;42.600;23.476;2022-12-20T03:41:02;-2.92;77.11
67942;SHT31;54731;42.600;23.476;2022-12-20T03:43:28;-2.99;77.68
67942;SHT31;54731;42.600;23.476;2022-12-20T03:45:53;-2.99;77.71
67942;SHT31;54731;42.600;23.476;2022-12-20T03:48:18;-2.99;77.67
67942;SHT31;54731;42.600;23.476;2022-12-20T03:50:44;-3.01;78.02
67942;SHT31;54731;42.600;23.476;2022-12-20T03:53:09;-2.92;78.01
67942;SHT31;54731;42.600;23.476;2022-12-20T03:55:34;-2.89;77.65
67942;SHT31;54731;42.600;23.476;2022-12-20T03:58:00;-2.93;77.66
67942;SHT31;54731;42.600;23.476;2022-12-20T04:00:25;-2.90;77.64
67942;SHT31;54731;42.600;23.476;2022-12-20T04:02:51;-2.92;77.56
67942;SHT31;54731;42.600;23.476;2022-12-20T04:05:16;-2.90;77.49
67942;SHT31;54731;42.600;23.476;2022-12-20T04:07:41;-2.87;77.35
67942;SHT31;54731;42.600;23.476;2022-12-20T04:10:07;-2.93;77.41
67942;SHT31;54731;42.600;23.476;2022-12-20T04:12:32;-3.00;77.39
67942;SHT31;54731;42.600;23.476;2022-12-20T04:14:58;-3.06;77.46
67942;SHT31;54731;42.600;23.476;2022-12-20T04:17:23;-3.04;77.72
67942;SHT31;54731;42.600;23.476;2022-12-20T04:19:48;-3.04;77.76
67942;SHT31;54731;42.600;23.476;2022-12-20T04:22:14;-3.03;77.70
67942;SHT31;54731;42.600;23.476;2022-12-20T04:24:39;-3.06;77.26
67942;SHT31;54731;42.600;23.476;2022-12-20T04:27:04;-3.11;77.75
67942;SHT31;54731;42.600;23.476;2022-12-20T04:29:30;-3.14;77.68
67942;SHT31;54731;42.600;23.476;2022-12-20T04:31:55;-3.18;77.60
67942;SHT31;54731;42.600;23.476;2022-12-20T04:34:21;-3.34;77.67
67942;SHT31;54731;42.600;23.476;2022-12-20T04:36:46;-3.28;77.94
67942;SHT31;54731;42.600;23.476;2022-12-20T04:39:11;-3.34;78.08
67942;SHT31;54731;42.600;23.476;2022-12-20T04:41:37;-3.41;77.88
67942;SHT31;54731;42.600;23.476;2022-12-20T04:44:02;-3.46;78.08
67942;SHT31;54731;42.600;23.476;2022-12-20T04:46:27;-3.48;78.08
67942;SHT31;54731;42.600;23.476;2022-12-20T04:48:53;-3.52;78.28
67942;SHT31;54731;42.600;23.476;2022-12-20T04:51:18;-3.52;78.31
67942;SHT31;54731;42.600;23.476;2022-12-20T04:53:44;-3.58;78.40
67942;SHT31;54731;42.600;23.476;2022-12-20T04:56:09;-3.58;78.47
67942;SHT31;54731;42.600;23.476;2022-12-20T04:58:34;-3.59;78.36
67942;SHT31;54731;42.600;23.476;2022-12-20T05:01:00;-3.59;78.44
67942;SHT31;54731;42.600;23.476;2022-12-20T05:03:26;-3.68;78.52
67942;SHT31;54731;42.600;23.476;2022-12-20T05:05:52;-3.78;78.69
67942;SHT31;54731;42.600;23.476;2022-12-20T05:08:17;-3.74;78.66
67942;SHT31;54731;42.600;23.476;2022-12-20T05:10:43;-3.72;78.60
67942;SHT31;54731;42.600;23.476;2022-12-20T05:13:08;-3.74;78.54
67942;SHT31;54731;42.600;23.476;2022-12-20T05:15:34;-3.86;78.86
67942;SHT31;54731;42.600;23.476;2022-12-20T05:17:59;-3.86;79.21
67942;SHT31;54731;42.600;23.476;2022-12-20T05:20:26;-3.83;79.28
67942;SHT31;54731;42.600;23.476;2022-12-20T05:22:51;-3.81;79.04
67942;SHT31;54731;42.600;23.476;2022-12-20T05:25:17;-3.81;78.90
67942;SHT31;54731;42.600;23.476;2022-12-20T05:27:44;-3.86;79.09
67942;SHT31;54731;42.600;23.476;2022-12-20T05:30:09;-3.88;79.16
67942;SHT31;54731;42.600;23.476;2022-12-20T05:32:35;-3.85;79.02
67942;SHT31;54731;42.600;23.476;2022-12-20T05:35:00;-3.91;78.98
67942;SHT31;54731;42.600;23.476;2022-12-20T05:37:25;-3.86;78.78
67942;SHT31;54731;42.600;23.476;2022-12-20T05:39:51;-3.95;79.10
67942;SHT31;54731;42.600;23.476;2022-12-20T05:42:19;-3.95;79.07
67942;SHT31;54731;42.600;23.476;2022-12-20T05:44:44;-4.02;78.88
67942;SHT31;54731;42.600;23.476;2022-12-20T05:47:09;-3.98;79.00
67942;SHT31;54731;42.600;23.476;2022-12-20T05:49:35;-4.02;79.40
67942;SHT31;54731;42.600;23.476;2022-12-20T05:52:01;-4.07;79.67
67942;SHT31;54731;42.600;23.476;2022-12-20T05:54:27;-4.05;79.62
67942;SHT31;54731;42.600;23.476;2022-12-20T05:56:52;-4.06;79.53
67942;SHT31;54731;42.600;23.476;2022-12-20T05:59:17;-4.05;79.71
67942;SHT31;54731;42.600;23.476;2022-12-20T06:01:43;-4.02;79.58
67942;SHT31;54731;42.600;23.476;2022-12-20T06:04:08;-4.02;79.55
67942;SHT31;54731;42.600;23.476;2022-12-20T06:06:33;-4.05;79.25
67942;SHT31;54731;42.600;23.476;2022-12-20T06:08:59;-4.03;79.29
67942;SHT31;54731;42.600;23.476;2022-12-20T06:11:24;-4.03;79.23
67942;SHT31;54731;42.600;23.476;2022-12-20T06:13:49;-4.07;79.64
67942;SHT31;54731;42.600;23.476;2022-12-20T06:16:15;-4.03;79.84
67942;SHT31;54731;42.600;23.476;2022-12-20T06:18:41;-3.99;79.64
67942;SHT31;54731;42.600;23.476;2022-12-20T06:21:07;-4.00;79.70
67942;SHT31;54731;42.600;23.476;2022-12-20T06:23:32;-4.03;79.88
67942;SHT31;54731;42.600;23.476;2022-12-20T06:25:57;-3.96;79.77
67942;SHT31;54731;42.600;23.476;2022-12-20T06:28:22;-3.99;79.89
67942;SHT31;54731;42.600;23.476;2022-12-20T06:30:52;-3.99;79.90
67942;SHT31;54731;42.600;23.476;2022-12-20T06:33:18;-4.03;79.96
67942;SHT31;54731;42.600;23.476;2022-12-20T06:35:43;-3.99;79.71
67942;SHT31;54731;42.600;23.476;2022-12-20T06:38:08;-3.92;79.53
67942;SHT31;54731;42.600;23.476;2022-12-20T06:40:34;-3.92;79.46
67942;SHT31;54731;42.600;23.476;2022-12-20T06:42:59;-3.96;79.38
67942;SHT31;54731;42.600;23.476;2022-12-20T06:45:24;-3.92;79.26
67942;SHT31;54731;42.600;23.476;2022-12-20T06:47:49;-3.85;79.26
67942;SHT31;54731;42.600;23.476;2022-12-20T06:50:15;-3.78;79.41
67942;SHT31;54731;42.600;23.476;2022-12-20T06:52:40;-3.81;79.42
67942;SHT31;54731;42.600;23.476;2022-12-20T06:55:06;-3.78;79.42
67942;SHT31;54731;42.600;23.476;2022-12-20T06:57:31;-3.75;79.23
67942;SHT31;54731;42.600;23.476;2022-12-20T06:59:56;-3.85;79.37
67942;SHT31;54731;42.600;23.476;2022-12-20T07:02:22;-3.89;79.47
67942;SHT31;54731;42.600;23.476;2022-12-20T07:04:47;-3.83;79.49
67942;SHT31;54731;42.600;23.476;2022-12-20T07:07:12;-3.78;79.23
67942;SHT31;54731;42.600;23.476;2022-12-20T07:09:38;-3.69;78.92
67942;SHT31;54731;42.600;23.476;2022-12-20T07:12:03;-3.67;78.69
67942;SHT31;54731;42.600;23.476;2022-12-20T07:14:29;-3.64;78.90
67942;SHT31;54731;42.600;23.476;2022-12-20T07:16:54;-3.65;78.83
67942;SHT31;54731;42.600;23.476;2022-12-20T07:19:19;-3.78;78.88
67942;SHT31;54731;42.600;23.476;2022-12-20T07:21:46;-3.71;78.79
67942;SHT31;54731;42.600;23.476;2022-12-20T07:24:11;-3.64;78.61
67942;SHT31;54731;42.600;23.476;2022-12-20T07:26:36;-3.61;78.89
67942;SHT31;54731;42.600;23.476;2022-12-20T07:29:02;-3.59;78.15
67942;SHT31;54731;42.600;23.476;2022-12-20T07:31:27;-3.65;78.42
67942;SHT31;54731;42.600;23.476;2022-12-20T07:33:52;-3.58;78.47
67942;SHT31;54731;42.600;23.476;2022-12-20T07:36:18;-3.48;77.79
67942;SHT31;54731;42.600;23.476;2022-12-20T07:38:43;-3.43;77.94
67942;SHT31;54731;42.600;23.476;2022-12-20T07:41:14;-3.41;77.92
67942;SHT31;54731;42.600;23.476;2022-12-20T07:43:40;-3.40;78.12
67942;SHT31;54731;42.600;23.476;2022-12-20T07:46:06;-3.31;77.78
67942;SHT31;54731;42.600;23.476;2022-12-20T07:48:32;-3.21;77.00
67942;SHT31;54731;42.600;23.476;2022-12-20T07:51:07;-3.18;76.74
67942;SHT31;54731;42.600;23.476;2022-12-20T07:53:35;-3.10;76.72
67942;SHT31;54731;42.600;23.476;2022-12-20T07:56:03;-3.04;76.42
67942;SHT31;54731;42.600;23.476;2022-12-20T07:58:30;-3.07;75.97
67942;SHT31;54731;42.600;23.476;2022-12-20T08:00:57;-3.01;75.79
67942;SHT31;54731;42.600;23.476;2022-12-20T08:03:27;-2.97;75.87
67942;SHT31;54731;42.600;23.476;2022-12-20T08:05:57;-3.03;76.02
67942;SHT31;54731;42.600;23.476;2022-12-20T08:08:24;-3.01;75.23
67942;SHT31;54731;42.600;23.476;2022-12-20T08:10:50;-2.97;75.45
67942;SHT31;54731;42.600;23.476;2022-12-20T08:13:16;-2.90;75.56
67942;SHT31;54731;42.600;23.476;2022-12-20T08:15:41;-2.96;74.79
67942;SHT31;54731;42.600;23.476;2022-12-20T08:18:07;-2.92;75.08
67942;SHT31;54731;42.600;23.476;2022-12-20T08:20:32;-2.80;76.42
67942;SHT31;54731;42.600;23.476;2022-12-20T08:22:58;-2.77;76.00
67942;SHT31;54731;42.600;23.476;2022-12-20T08:25:23;-2.72;74.78
67942;SHT31;54731;42.600;23.476;2022-12-20T08:27:49;-2.68;73.55
67942;SHT31;54731;42.600;23.476;2022-12-20T08:30:14;-2.66;74.05
67942;SHT31;54731;42.600;23.476;2022-12-20T08:32:40;-2.62;74.12
67942;SHT31;54731;42.600;23.476;2022-12-20T08:35:05;-2.49;74.07
67942;SHT31;54731;42.600;23.476;2022-12-20T08:37:31;-2.46;73.04
67942;SHT31;54731;42.600;23.476;2022-12-20T08:39:56;-2.49;72.78
67942;SHT31;54731;42.600;23.476;2022-12-20T08:42:22;-2.51;72.88
67942;SHT31;54731;42.600;23.476;2022-12-20T08:44:47;-2.46;72.28
67942;SHT31;54731;42.600;23.476;2022-12-20T08:47:12;-2.45;71.03
67942;SHT31;54731;42.600;23.476;2022-12-20T08:49:38;-2.34;71.66
67942;SHT31;54731;42.600;23.476;2022-12-20T08:52:03;-2.29;70.62
67942;SHT31;54731;42.600;23.476;2022-12-20T08:54:29;-2.27;70.97
67942;SHT31;54731;42.600;23.476;2022-12-20T08:56:54;-2.22;70.50
67942;SHT31;54731;42.600;23.476;2022-12-20T08:59:19;-2.18;69.31
67942;SHT31;54731;42.600;23.476;2022-12-20T09:01:45;-2.14;68.77
67942;SHT31;54731;42.600;23.476;2022-12-20T09:04:10;-2.07;69.96
67942;SHT31;54731;42.600;23.476;2022-12-20T09:06:36;-1.53;78.85
67942;SHT31;54731;42.600;23.476;2022-12-20T09:09:02;-1.56;73.06
67942;SHT31;54731;42.600;23.476;2022-12-20T09:11:28;-1.60;67.73
67942;SHT31;54731;42.600;23.476;2022-12-20T09:13:54;-1.64;68.35
67942;SHT31;54731;42.600;23.476;2022-12-20T09:16:22;-1.62;69.46
67942;SHT31;54731;42.600;23.476;2022-12-20T09:18:49;-1.62;69.82
67942;SHT31;54731;42.600;23.476;2022-12-20T09:21:15;-1.53;69.68
67942;SHT31;54731;42.600;23.476;2022-12-20T09:23:40;-1.52;68.53
67942;SHT31;54731;42.600;23.476;2022-12-20T09:26:09;-1.46;66.15
67942;SHT31;54731;42.600;23.476;2022-12-20T09:28:35;-1.43;67.36
67942;SHT31;54731;42.600;23.476;2022-12-20T09:31:03;-1.33;67.66
67942;SHT31;54731;42.600;23.476;2022-12-20T09:33:29;-1.25;67.49
67942;SHT31;54731;42.600;23.476;2022-12-20T09:35:56;-1.17;66.80
67942;SHT31;54731;42.600;23.476;2022-12-20T09:38:21;-1.13;65.91
67942;SHT31;54731;42.600;23.476;2022-12-20T09:40:49;-1.11;65.62
67942;SHT31;54731;42.600;23.476;2022-12-20T09:43:16;-1.06;65.63
67942;SHT31;54731;42.600;23.476;2022-12-20T09:45:42;-1.06;64.54
67942;SHT31;54731;42.600;23.476;2022-12-20T09:48:15;-1.01;64.98
67942;SHT31;54731;42.600;23.476;2022-12-20T09:53:41;-0.80;65.16
67942;SHT31;54731;42.600;23.476;2022-12-20T09:59:01;-0.78;63.82
67942;SHT31;54731;42.600;23.476;2022-12-20T10:01:29;-0.70;65.06
67942;SHT31;54731;42.600;23.476;2022-12-20T10:03:57;-0.62;62.94
67942;SHT31;54731;42.600;23.476;2022-12-20T10:07:03;-0.57;63.33
67942;SHT31;54731;42.600;23.476;2022-12-20T10:14:54;-0.37;63.87
67942;SHT31;54731;42.600;23.476;2022-12-20T10:17:43;-0.27;63.82
67942;SHT31;54731;42.600;23.476;2022-12-20T10:25:21;-0.03;63.90
67942;SHT31;54731;42.600;23.476;2022-12-20T10:27:49;0.03;64.17
67942;SHT31;54731;42.600;23.476;2022-12-20T10:30:18;0.11;64.75
67942;SHT31;54731;42.600;23.476;2022-12-20T10:32:45;0.18;63.96
67942;SHT31;54731;42.600;23.476;2022-12-20T10:37:56;0.37;61.54
67942;SHT31;54731;42.600;23.476;2022-12-20T10:40:32;0.38;61.81
67942;SHT31;54731;42.600;23.476;2022-12-20T10:42:59;0.42;60.81
67942;SHT31;54731;42.600;23.476;2022-12-20T10:45:41;0.51;59.34
67942;SHT31;54731;42.600;23.476;2022-12-20T10:48:34;0.54;59.63
67942;SHT31;54731;42.600;23.476;2022-12-20T10:51:18;0.64;60.82
67942;SHT31;54731;42.600;23.476;2022-12-20T10:54:00;0.75;61.14
67942;SHT31;54731;42.600;23.476;2022-12-20T10:56:31;0.86;61.23
67942;SHT31;54731;42.600;23.476;2022-12-20T11:01:43;0.99;58.49
67942;SHT31;54731;42.600;23.476;2022-12-20T11:04:26;1.15;59.34
67942;SHT31;54731;42.600;23.476;2022-12-20T11:06:52;1.24;58.53
67942;SHT31;54731;42.600;23.476;2022-12-20T11:12:13;1.46;58.25
67942;SHT31;54731;42.600;23.476;2022-12-20T11:14:41;1.54;57.74
67942;SHT31;54731;42.600;23.476;2022-12-20T11:17:24;1.55;54.74
67942;SHT31;54731;42.600;23.476;2022-12-20T11:22:27;1.77;55.68
67942;SHT31;54731;42.600;23.476;2022-12-20T11:30:33;2.04;54.34
67942;SHT31;54731;42.600;23.476;2022-12-20T11:34:22;2.14;54.58
67942;SHT31;54731;42.600;23.476;2022-12-20T11:39:33;2.19;52.82
67942;SHT31;54731;42.600;23.476;2022-12-20T11:50:25;2.69;51.66
67942;SHT31;54731;42.600;23.476;2022-12-20T11:53:09;2.83;50.51
67942;SHT31;54731;42.600;23.476;2022-12-20T11:55:40;2.87;49.33
67942;SHT31;54731;42.600;23.476;2022-12-20T12:01:13;2.99;49.50
67942;SHT31;54731;42.600;23.476;2022-12-20T12:03:44;3.03;47.52
67942;SHT31;54731;42.600;23.476;2022-12-20T12:06:26;3.15;49.38
67942;SHT31;54731;42.600;23.476;2022-12-20T12:09:24;3.03;48.77
67942;SHT31;54731;42.600;23.476;2022-12-20T12:12:03;3.24;48.26
67942;SHT31;54731;42.600;23.476;2022-12-20T12:14:49;3.41;48.03
67942;SHT31;54731;42.600;23.476;2022-12-20T12:17:27;3.41;46.67
67942;SHT31;54731;42.600;23.476;2022-12-20T12:19:55;3.48;47.38
67942;SHT31;54731;42.600;23.476;2022-12-20T12:22:29;3.55;47.05
67942;SHT31;54731;42.600;23.476;2022-12-20T12:24:59;3.74;47.07
67942;SHT31;54731;42.600;23.476;2022-12-20T12:27:27;3.46;47.39
67942;SHT31;54731;42.600;23.476;2022-12-20T12:29:54;3.45;46.31
67942;SHT31;54731;42.600;23.476;2022-12-20T12:32:42;3.50;47.29
67942;SHT31;54731;42.600;23.476;2022-12-20T12:35:16;3.56;46.67
67942;SHT31;54731;42.600;23.476;2022-12-20T12:40:57;3.56;48.42
67942;SHT31;54731;42.600;23.476;2022-12-20T12:46:21;3.46;49.02
67942;SHT31;54731;42.600;23.476;2022-12-20T12:51:31;3.41;48.45
67942;SHT31;54731;42.600;23.476;2022-12-20T12:56:31;3.34;49.07
67942;SHT31;54731;42.600;23.476;2022-12-20T13:01:54;3.10;49.58
67942;SHT31;54731;42.600;23.476;2022-12-20T13:04:24;2.99;50.64
67942;SHT31;54731;42.600;23.476;2022-12-20T13:06:54;2.90;51.11
67942;SHT31;54731;42.600;23.476;2022-12-20T13:11:53;2.91;51.09
67942;SHT31;54731;42.600;23.476;2022-12-20T13:16:47;2.86;50.93
67942;SHT31;54731;42.600;23.476;2022-12-20T13:19:33;2.72;51.39
67942;SHT31;54731;42.600;23.476;2022-12-20T13:27:37;2.53;52.37
67942;SHT31;54731;42.600;23.476;2022-12-20T13:30:22;2.52;52.46
67942;SHT31;54731;42.600;23.476;2022-12-20T13:40:43;2.26;53.39
67942;SHT31;54731;42.600;23.476;2022-12-20T13:43:34;2.16;53.40
67942;SHT31;54731;42.600;23.476;2022-12-20T13:48:55;2.09;53.32
67942;SHT31;54731;42.600;23.476;2022-12-20T13:51:24;1.98;53.38
67942;SHT31;54731;42.600;23.476;2022-12-20T13:54:01;1.95;54.11
67942;SHT31;54731;42.600;23.476;2022-12-20T13:58:53;1.86;54.20
67942;SHT31;54731;42.600;23.476;2022-12-20T14:01:21;1.77;54.92
67942;SHT31;54731;42.600;23.476;2022-12-20T14:03:48;1.71;55.22
67942;SHT31;54731;42.600;23.476;2022-12-20T14:06:14;1.74;55.69
67942;SHT31;54731;42.600;23.476;2022-12-20T14:08:48;1.63;55.58
67942;SHT31;54731;42.600;23.476;2022-12-20T14:11:19;1.46;55.26
67942;SHT31;54731;42.600;23.476;2022-12-20T14:14:03;1.20;56.40
67942;SHT31;54731;42.600;23.476;2022-12-20T14:16:30;1.20;55.77
67942;SHT31;54731;42.600;23.476;2022-12-20T14:18:59;1.17;56.31
67942;SHT31;54731;42.600;23.476;2022-12-20T14:21:25;1.23;56.60
67942;SHT31;54731;42.600;23.476;2022-12-20T14:23:54;1.20;56.64
67942;SHT31;54731;42.600;23.476;2022-12-20T14:26:27;1.17;57.02
67942;SHT31;54731;42.600;23.476;2022-12-20T14:28:57;1.02;57.81
67942;SHT31;54731;42.600;23.476;2022-12-20T14:36:40;0.96;58.53
67942;SHT31;54731;42.600;23.476;2022-12-20T14:42:20;0.73;59.62
67942;SHT31;54731;42.600;23.476;2022-12-20T14:44:46;0.62;60.06
67942;SHT31;54731;42.600;23.476;2022-12-20T14:47:24;0.66;59.89
67942;SHT31;54731;42.600;23.476;2022-12-20T14:49:54;0.62;60.06
67942;SHT31;54731;42.600;23.476;2022-12-20T14:52:37;0.57;60.38
67942;SHT31;54731;42.600;23.476;2022-12-20T14:55:07;0.55;60.47
67942;SHT31;54731;42.600;23.476;2022-12-20T15:08:22;0.31;61.38
67942;SHT31;54731;42.600;23.476;2022-12-20T15:13:17;0.13;62.64
67942;SHT31;54731;42.600;23.476;2022-12-20T15:15:43;0.13;61.99
67942;SHT31;54731;42.600;23.476;2022-12-20T15:18:17;0.11;62.02
67942;SHT31;54731;42.600;23.476;2022-12-20T15:20:45;0.13;61.88
67942;SHT31;54731;42.600;23.476;2022-12-20T15:23:16;0.13;62.02
67942;SHT31;54731;42.600;23.476;2022-12-20T15:25:44;0.11;62.07
67942;SHT31;54731;42.600;23.476;2022-12-20T15:28:14;-0.02;62.44
67942;SHT31;54731;42.600;23.476;2022-12-20T15:30:40;0.04;62.14
67942;SHT31;54731;42.600;23.476;2022-12-20T15:33:05;0.08;61.88
67942;SHT31;54731;42.600;23.476;2022-12-20T15:35:31;0.07;62.21
67942;SHT31;54731;42.600;23.476;2022-12-20T15:37:57;0.05;61.59
67942;SHT31;54731;42.600;23.476;2022-12-20T15:40:22;0.04;61.54
67942;SHT31;54731;42.600;23.476;2022-12-20T15:42:47;0.05;60.44
67942;SHT31;54731;42.600;23.476;2022-12-20T15:45:13;0.05;60.33
67942;SHT31;54731;42.600;23.476;2022-12-20T15:47:38;-0.02;60.90
67942;SHT31;54731;42.600;23.476;2022-12-20T15:50:04;-0.09;61.16
67942;SHT31;54731;42.600;23.476;2022-12-20T15:52:30;-0.10;61.55
67942;SHT31;54731;42.600;23.476;2022-12-20T15:54:55;-0.07;61.61
67942;SHT31;54731;42.600;23.476;2022-12-20T15:57:21;-0.06;62.18
67942;SHT31;54731;42.600;23.476;2022-12-20T15:59:46;-0.14;62.19
67942;SHT31;54731;42.600;23.476;2022-12-20T16:02:23;-0.06;62.30
67942;SHT31;54731;42.600;23.476;2022-12-20T16:04:49;-0.06;62.58
67942;SHT31;54731;42.600;23.476;2022-12-20T16:07:15;-0.03;62.31
67942;SHT31;54731;42.600;23.476;2022-12-20T16:09:40;-0.05;62.74
67942;SHT31;54731;42.600;23.476;2022-12-20T16:12:26;-0.05;62.81
67942;SHT31;54731;42.600;23.476;2022-12-20T16:14:52;-0.10;63.21
67942;SHT31;54731;42.600;23.476;2022-12-20T16:17:18;-0.09;63.25
67942;SHT31;54731;42.600;23.476;2022-12-20T16:19:43;-0.14;63.25
67942;SHT31;54731;42.600;23.476;2022-12-20T16:22:15;-0.20;63.15
67942;SHT31;54731;42.600;23.476;2022-12-20T16:24:41;-0.26;63.21
67942;SHT31;54731;42.600;23.476;2022-12-20T16:27:06;-0.26;63.13
67942;SHT31;54731;42.600;23.476;2022-12-20T16:29:31;-0.33;63.54
67942;SHT31;54731;42.600;23.476;2022-12-20T16:31:57;-0.36;63.49
67942;SHT31;54731;42.600;23.476;2022-12-20T16:34:22;-0.31;63.18
67942;SHT31;54731;42.600;23.476;2022-12-20T16:36:47;-0.38;63.43
67942;SHT31;54731;42.600;23.476;2022-12-20T16:39:13;-0.44;63.38
67942;SHT31;54731;42.600;23.476;2022-12-20T16:41:40;-0.50;64.06
67942;SHT31;54731;42.600;23.476;2022-12-20T16:44:05;-0.50;64.13
67942;SHT31;54731;42.600;23.476;2022-12-20T16:46:35;-0.47;63.79
67942;SHT31;54731;42.600;23.476;2022-12-20T16:49:01;-0.47;63.81
67942;SHT31;54731;42.600;23.476;2022-12-20T16:51:45;-0.45;63.81
67942;SHT31;54731;42.600;23.476;2022-12-20T16:54:12;-0.48;64.03
67942;SHT31;54731;42.600;23.476;2022-12-20T16:56:38;-0.57;64.42
67942;SHT31;54731;42.600;23.476;2022-12-20T16:59:03;-0.58;64.49
67942;SHT31;54731;42.600;23.476;2022-12-20T17:01:33;-0.61;64.88
67942;SHT31;54731;42.600;23.476;2022-12-20T17:04:00;-0.62;64.93
67942;SHT31;54731;42.600;23.476;2022-12-20T17:06:25;-0.65;64.77
67942;SHT31;54731;42.600;23.476;2022-12-20T17:08:50;-0.60;64.59
67942;SHT31;54731;42.600;23.476;2022-12-20T17:11:27;-0.62;64.99
67942;SHT31;54731;42.600;23.476;2022-12-20T17:13:54;-0.62;64.84
67942;SHT31;54731;42.600;23.476;2022-12-20T17:16:21;-0.64;64.70
67942;SHT31;54731;42.600;23.476;2022-12-20T17:18:48;-0.64;64.55
67942;SHT31;54731;42.600;23.476;2022-12-20T17:23:45;-0.68;65.06
67942;SHT31;54731;42.600;23.476;2022-12-20T17:26:14;-0.68;65.10
67942;SHT31;54731;42.600;23.476;2022-12-20T17:28:40;-0.65;65.12
67942;SHT31;54731;42.600;23.476;2022-12-20T17:31:36;-0.62;65.10
67942;SHT31;54731;42.600;23.476;2022-12-20T17:34:02;-0.65;65.12